createdAt,value
2018-10-04T00:01:24.021Z,17.56
2018-10-04T00:03:55.957Z,17.66
2018-10-04T00:06:27.106Z,17.49
2018-10-04T00:09:02.273Z,17.58
2018-10-04T00:11:34.728Z,17.20
2018-10-04T00:14:07.692Z,16.76
2018-10-04T00:16:39.524Z,16.56
2018-10-04T00:19:12.633Z,16.59
2018-10-04T00:21:47.390Z,16.60
2018-10-04T00:24:26.322Z,16.65
2018-10-04T00:26:58.061Z,16.82
2018-10-04T00:29:29.051Z,16.72
2018-10-04T00:31:59.906Z,16.53
2018-10-04T00:34:31.783Z,16.49
2018-10-04T00:37:02.780Z,16.51
2018-10-04T00:39:34.463Z,16.57
2018-10-04T00:42:06.002Z,16.68
2018-10-04T00:44:40.922Z,16.52
2018-10-04T00:47:22.310Z,16.57
2018-10-04T00:49:57.671Z,16.53
2018-10-04T00:52:29.700Z,16.65
2018-10-04T00:55:03.248Z,16.61
2018-10-04T00:57:36.348Z,16.28
2018-10-04T01:00:06.819Z,16.07
2018-10-04T01:02:36.717Z,15.87
2018-10-04T01:05:07.941Z,15.90
2018-10-04T01:07:42.474Z,15.89
2018-10-04T01:10:13.521Z,15.99
2018-10-04T01:12:44.945Z,16.08
2018-10-04T01:15:48.078Z,16.04
2018-10-04T01:18:32.465Z,16.08
2018-10-04T01:23:54.365Z,16.15
2018-10-04T01:26:30.896Z,16.13
2018-10-04T01:29:05.039Z,16.14
2018-10-04T01:31:57.262Z,16.22
2018-10-04T01:34:27.595Z,16.18
2018-10-04T01:36:59.484Z,15.99
2018-10-04T01:39:30.086Z,15.98
2018-10-04T01:42:12.180Z,15.77
2018-10-04T01:44:42.954Z,15.53
2018-10-04T01:47:14.747Z,15.42
2018-10-04T01:49:45.152Z,15.26
2018-10-04T01:52:14.754Z,15.40
2018-10-04T01:54:44.255Z,15.51
2018-10-04T01:57:13.775Z,15.53
2018-10-04T01:59:44.106Z,15.61
2018-10-04T02:02:14.481Z,15.75
2018-10-04T02:04:44.880Z,15.81
2018-10-04T02:07:15.567Z,15.74
2018-10-04T02:09:45.100Z,15.61
2018-10-04T02:12:15.865Z,15.45
2018-10-04T02:14:48.249Z,15.39
2018-10-04T02:17:18.782Z,15.21
2018-10-04T02:19:49.836Z,15.07
2018-10-04T02:22:20.305Z,14.98
2018-10-04T02:24:49.829Z,14.78
2018-10-04T02:27:20.508Z,14.93
2018-10-04T02:29:51.794Z,14.92
2018-10-04T02:32:22.185Z,14.97
2018-10-04T02:34:53.710Z,14.96
2018-10-04T02:37:23.255Z,14.80
2018-10-04T02:39:52.845Z,15.04
2018-10-04T02:42:24.293Z,15.04
2018-10-04T02:44:54.580Z,14.99
2018-10-04T02:47:24.852Z,15.01
2018-10-04T02:49:55.803Z,15.02
2018-10-04T02:52:25.303Z,14.93
2018-10-04T02:55:00.956Z,14.90
2018-10-04T02:57:31.715Z,14.74
2018-10-04T03:00:02.076Z,14.69
2018-10-04T03:02:32.377Z,14.62
2018-10-04T03:05:07.821Z,14.67
2018-10-04T03:07:38.347Z,14.70
2018-10-04T03:10:10.805Z,14.71
2018-10-04T03:12:42.188Z,14.83
2018-10-04T03:15:13.765Z,14.80
2018-10-04T03:17:44.159Z,14.76
2018-10-04T03:20:15.010Z,14.73
2018-10-04T03:22:46.390Z,14.76
2018-10-04T03:25:18.369Z,14.88
2018-10-04T03:27:49.506Z,14.96
2018-10-04T03:30:19.272Z,15.02
2018-10-04T03:32:52.335Z,15.00
2018-10-04T03:35:25.323Z,15.06
2018-10-04T03:37:55.389Z,15.13
2018-10-04T03:40:26.610Z,15.10
2018-10-04T03:42:56.072Z,15.06
2018-10-04T03:45:26.502Z,15.04
2018-10-04T03:47:57.502Z,15.01
2018-10-04T03:50:28.156Z,14.98
2018-10-04T03:52:58.531Z,14.95
2018-10-04T03:55:29.806Z,14.95
2018-10-04T03:58:01.863Z,14.99
2018-10-04T04:00:37.685Z,15.01
2018-10-04T04:03:07.197Z,14.99
2018-10-04T04:05:39.412Z,14.94
2018-10-04T04:08:11.913Z,14.84
2018-10-04T04:10:44.828Z,14.74
2018-10-04T04:13:15.873Z,14.72
2018-10-04T04:15:45.303Z,14.75
2018-10-04T04:18:15.867Z,14.76
2018-10-04T04:20:49.166Z,14.73
2018-10-04T04:23:22.812Z,14.66
2018-10-04T04:25:54.632Z,14.55
2018-10-04T04:28:26.590Z,14.54
2018-10-04T04:30:57.658Z,14.55
2018-10-04T04:33:29.476Z,14.45
2018-10-04T04:35:59.628Z,14.44
2018-10-04T04:38:31.652Z,14.44
2018-10-04T04:41:03.361Z,14.49
2018-10-04T04:43:35.859Z,14.51
2018-10-04T04:46:08.584Z,14.44
2018-10-04T04:48:39.976Z,14.50
2018-10-04T04:51:11.308Z,14.50
2018-10-04T04:53:43.917Z,14.50
2018-10-04T04:56:15.938Z,14.47
2018-10-04T04:58:46.402Z,14.49
2018-10-04T05:01:18.441Z,14.42
2018-10-04T05:03:50.011Z,14.34
2018-10-04T05:06:22.547Z,14.28
2018-10-04T05:08:53.804Z,14.32
2018-10-04T05:11:25.025Z,14.20
2018-10-04T05:13:56.635Z,13.98
2018-10-04T05:16:29.385Z,14.12
2018-10-04T05:19:00.439Z,14.17
2018-10-04T05:21:32.320Z,14.38
2018-10-04T05:24:03.658Z,14.17
2018-10-04T05:26:36.676Z,13.95
2018-10-04T05:29:12.609Z,13.95
2018-10-04T05:31:44.257Z,13.93
2018-10-04T05:34:16.189Z,13.82
2018-10-04T05:36:49.507Z,13.78
2018-10-04T05:39:22.391Z,13.85
2018-10-04T05:41:55.152Z,13.89
2018-10-04T05:44:26.276Z,13.80
2018-10-04T05:46:59.134Z,14.03
2018-10-04T05:49:31.944Z,14.22
2018-10-04T05:52:04.669Z,14.24
2018-10-04T05:54:41.365Z,14.38
2018-10-04T05:57:11.016Z,14.47
2018-10-04T05:59:41.210Z,14.56
2018-10-04T06:02:13.140Z,14.76
2018-10-04T06:04:45.264Z,15.00
2018-10-04T06:07:16.586Z,15.09
2018-10-04T06:09:48.197Z,15.30
2018-10-04T06:12:18.599Z,15.54
2018-10-04T06:14:54.870Z,15.88
2018-10-04T06:17:27.512Z,16.06
2018-10-04T06:20:00.259Z,16.27
2018-10-04T06:22:32.789Z,16.41
2018-10-04T06:25:03.779Z,16.72
2018-10-04T06:27:41.120Z,17.00
2018-10-04T06:30:13.617Z,17.02
2018-10-04T06:32:44.736Z,17.05
2018-10-04T06:35:15.704Z,17.17
2018-10-04T06:37:46.173Z,17.54
2018-10-04T06:40:17.313Z,17.67
2018-10-04T06:42:48.837Z,17.75
2018-10-04T06:45:18.508Z,17.93
2018-10-04T06:47:51.562Z,17.98
2018-10-04T06:50:23.338Z,18.18
2018-10-04T06:52:58.170Z,18.35
2018-10-04T06:55:31.757Z,18.36
2018-10-04T06:58:03.870Z,18.58
2018-10-04T07:00:59.251Z,18.94
2018-10-04T07:03:35.275Z,19.05
2018-10-04T07:06:07.616Z,19.13
2018-10-04T07:08:46.049Z,18.98
2018-10-04T07:11:17.935Z,19.05
2018-10-04T07:13:53.154Z,18.86
2018-10-04T07:16:27.570Z,18.59
2018-10-04T07:18:57.643Z,18.30
2018-10-04T07:21:29.731Z,18.47
2018-10-04T07:23:59.290Z,18.42
2018-10-04T07:26:32.636Z,18.54
2018-10-04T07:29:06.112Z,18.64
2018-10-04T07:31:39.569Z,18.60
2018-10-04T07:34:18.864Z,18.59
2018-10-04T07:36:53.237Z,18.64
2018-10-04T07:42:08.734Z,18.84
2018-10-04T07:44:41.387Z,18.95
2018-10-04T07:47:14.449Z,18.39
2018-10-04T07:49:53.258Z,18.28
2018-10-04T07:52:26.599Z,18.33
2018-10-04T07:54:57.829Z,18.32
2018-10-04T07:57:27.821Z,18.51
2018-10-04T08:00:00.495Z,18.81
2018-10-04T08:02:33.949Z,19.17
2018-10-04T08:05:04.138Z,19.14
2018-10-04T08:07:36.386Z,19.36
2018-10-04T08:10:08.039Z,19.49
2018-10-04T08:12:38.434Z,19.92
2018-10-04T08:15:14.079Z,20.14
2018-10-04T08:17:45.371Z,20.08
2018-10-04T08:20:16.628Z,20.15
2018-10-04T08:22:48.843Z,20.32
2018-10-04T08:25:19.641Z,20.34
2018-10-04T08:27:51.114Z,20.49
2018-10-04T08:30:36.153Z,20.73
2018-10-04T08:33:08.371Z,21.22
2018-10-04T08:35:39.234Z,21.61
2018-10-04T08:38:10.411Z,21.95
2018-10-04T08:40:46.659Z,21.97
2018-10-04T08:43:18.414Z,21.94
2018-10-04T08:46:00.586Z,21.90
2018-10-04T08:48:36.856Z,22.34
2018-10-04T08:51:06.700Z,22.42
2018-10-04T08:53:40.811Z,22.37
2018-10-04T08:56:12.704Z,22.77
2018-10-04T08:58:44.157Z,22.95
2018-10-04T09:01:14.565Z,22.95
2018-10-04T09:03:49.155Z,23.19
2018-10-04T09:06:21.021Z,23.65
2018-10-04T09:08:51.721Z,23.86
2018-10-04T09:11:26.144Z,24.15
2018-10-04T09:13:56.817Z,24.85
2018-10-04T09:16:28.604Z,24.82
2018-10-04T09:19:01.373Z,25.22
2018-10-04T09:21:31.619Z,25.64
2018-10-04T09:24:05.321Z,25.78
2018-10-04T09:26:39.061Z,25.50
2018-10-04T09:29:12.675Z,25.74
2018-10-04T09:32:01.255Z,26.09
2018-10-04T09:34:32.722Z,26.37
2018-10-04T09:37:02.427Z,26.52
2018-10-04T09:39:36.392Z,26.10
2018-10-04T09:42:06.048Z,25.77
2018-10-04T09:44:41.182Z,25.85
2018-10-04T09:47:18.012Z,25.85
2018-10-04T09:49:51.213Z,26.07
2018-10-04T09:52:25.028Z,26.17
2018-10-04T09:57:48.650Z,26.95
2018-10-04T10:00:26.286Z,26.89
2018-10-04T10:03:00.459Z,27.29
2018-10-04T10:05:30.242Z,27.80
2018-10-04T10:08:01.107Z,27.60
2018-10-04T10:10:32.198Z,27.43
2018-10-04T10:13:02.722Z,27.19
2018-10-04T10:15:37.100Z,26.92
2018-10-04T10:18:06.731Z,27.77
2018-10-04T10:20:37.260Z,28.33
2018-10-04T10:23:07.771Z,28.33
2018-10-04T10:25:38.912Z,27.94
2018-10-04T10:28:12.132Z,28.09
2018-10-04T10:30:46.378Z,28.51
2018-10-04T10:33:18.954Z,28.72
2018-10-04T10:35:52.621Z,28.52
2018-10-04T10:38:22.965Z,28.67
2018-10-04T10:40:53.711Z,28.81
2018-10-04T10:43:29.206Z,28.42
2018-10-04T10:46:05.380Z,28.48
2018-10-04T10:48:37.269Z,28.57
2018-10-04T10:51:07.622Z,28.86
2018-10-04T10:53:37.463Z,29.13
2018-10-04T10:56:07.061Z,28.67
2018-10-04T10:58:38.174Z,29.10
2018-10-04T11:01:07.818Z,29.25
2018-10-04T11:03:39.697Z,29.25
2018-10-04T11:06:10.929Z,28.94
2018-10-04T11:08:43.261Z,29.87
2018-10-04T11:11:14.034Z,30.20
2018-10-04T11:13:45.441Z,30.24
2018-10-04T11:16:15.289Z,30.30
2018-10-04T11:18:47.407Z,30.09
2018-10-04T11:21:17.036Z,30.06
2018-10-04T11:23:48.958Z,30.19
2018-10-04T11:26:19.431Z,30.66
2018-10-04T11:28:52.927Z,30.32
2018-10-04T11:31:24.252Z,30.37
2018-10-04T11:33:54.731Z,30.06
2018-10-04T11:36:27.499Z,30.31
2018-10-04T11:38:59.673Z,29.47
2018-10-04T11:41:30.232Z,29.38
2018-10-04T11:44:05.786Z,29.86
2018-10-04T11:46:37.271Z,30.44
2018-10-04T11:49:08.123Z,30.57
2018-10-04T11:51:39.618Z,30.52
2018-10-04T11:54:10.885Z,30.46
2018-10-04T11:56:45.118Z,30.79
2018-10-04T11:59:19.762Z,31.03
2018-10-04T12:01:52.264Z,30.82
2018-10-04T12:04:25.720Z,30.51
2018-10-04T12:06:56.576Z,30.55
2018-10-04T12:09:28.300Z,31.03
2018-10-04T12:11:58.936Z,31.36
2018-10-04T12:14:30.788Z,31.29
2018-10-04T12:17:03.112Z,31.20
2018-10-04T12:19:34.269Z,30.65
2018-10-04T12:22:06.845Z,30.89
2018-10-04T12:24:38.377Z,31.29
2018-10-04T12:27:11.423Z,31.24
2018-10-04T12:29:42.886Z,31.00
2018-10-04T12:32:13.629Z,30.46
2018-10-04T12:34:46.591Z,30.26
2018-10-04T12:37:17.987Z,30.32
2018-10-04T12:39:51.593Z,30.39
2018-10-04T12:42:23.427Z,30.50
2018-10-04T12:44:55.428Z,30.73
2018-10-04T12:47:29.743Z,30.51
2018-10-04T12:50:01.562Z,30.32
2018-10-04T12:52:32.921Z,30.18
2018-10-04T12:55:04.503Z,30.12
2018-10-04T12:57:37.586Z,30.25
2018-10-04T13:00:13.691Z,30.29
2018-10-04T13:02:45.173Z,30.65
2018-10-04T13:05:18.092Z,30.77
2018-10-04T13:07:54.395Z,30.49
2018-10-04T13:10:26.345Z,30.45
2018-10-04T13:12:59.201Z,30.53
2018-10-04T13:15:30.676Z,30.47
2018-10-04T13:18:03.462Z,30.72
2018-10-04T13:20:35.852Z,30.36
2018-10-04T13:23:07.912Z,30.44
2018-10-04T13:25:38.678Z,30.69
2018-10-04T13:28:10.118Z,30.27
2018-10-04T13:30:41.753Z,29.99
2018-10-04T13:33:13.285Z,30.40
2018-10-04T13:35:46.592Z,30.88
2018-10-04T13:38:22.380Z,30.86
2018-10-04T13:40:56.029Z,30.92
2018-10-04T13:43:29.526Z,30.99
2018-10-04T13:46:05.953Z,30.92
2018-10-04T13:48:38.484Z,30.86
2018-10-04T13:51:10.473Z,30.66
2018-10-04T13:53:45.463Z,30.26
2018-10-04T13:56:17.697Z,30.16
2018-10-04T13:58:48.216Z,30.20
2018-10-04T14:01:22.259Z,30.33
2018-10-04T14:03:55.379Z,30.48
2018-10-04T14:06:26.839Z,30.61
2018-10-04T14:09:00.971Z,30.33
2018-10-04T14:11:34.564Z,30.34
2018-10-04T14:14:07.434Z,30.33
2018-10-04T14:16:40.134Z,30.21
2018-10-04T14:19:12.448Z,30.55
2018-10-04T14:21:43.859Z,30.76
2018-10-04T14:24:15.227Z,30.77
2018-10-04T14:26:51.409Z,30.40
2018-10-04T14:29:22.873Z,30.25
2018-10-04T14:31:54.183Z,30.68
2018-10-04T14:34:25.592Z,30.72
2018-10-04T14:36:57.426Z,30.87
2018-10-04T14:39:30.098Z,30.72
2018-10-04T14:42:02.202Z,30.45
2018-10-04T14:44:34.025Z,30.16
2018-10-04T14:47:05.534Z,29.62
2018-10-04T14:49:37.165Z,29.41
2018-10-04T14:52:09.094Z,29.82
2018-10-04T14:54:43.597Z,30.21
2018-10-04T14:57:15.647Z,30.49
2018-10-04T14:59:47.063Z,30.32
2018-10-04T15:02:21.223Z,30.15
2018-10-04T15:04:53.342Z,30.06
2018-10-04T15:07:24.734Z,29.96
2018-10-04T15:09:55.998Z,29.86
2018-10-04T15:12:28.759Z,30.16
2018-10-04T15:14:59.925Z,29.72
2018-10-04T15:17:33.579Z,29.51
2018-10-04T15:20:09.024Z,30.06
2018-10-04T15:22:54.440Z,30.63
2018-10-04T15:25:25.547Z,30.80
2018-10-04T15:27:57.528Z,30.80
2018-10-04T15:30:30.229Z,30.85
2018-10-04T15:33:03.827Z,30.72
2018-10-04T15:35:34.900Z,30.41
2018-10-04T15:38:10.691Z,30.15
2018-10-04T15:40:42.586Z,30.11
2018-10-04T15:43:15.350Z,29.70
2018-10-04T15:45:56.532Z,30.42
2018-10-04T15:48:28.370Z,30.35
2018-10-04T15:50:59.862Z,30.36
2018-10-04T15:53:32.906Z,30.18
2018-10-04T15:56:04.588Z,30.04
2018-10-04T15:58:37.244Z,29.93
2018-10-04T16:01:08.570Z,29.81
2018-10-04T16:03:41.294Z,29.64
2018-10-04T16:08:55.510Z,29.35
2018-10-04T16:11:29.350Z,29.15
2018-10-04T16:14:00.797Z,28.97
2018-10-04T16:16:33.162Z,28.73
2018-10-04T16:19:12.290Z,28.44
2018-10-04T16:24:29.589Z,27.81
2018-10-04T16:27:11.144Z,27.47
2018-10-04T16:29:43.669Z,27.05
2018-10-04T16:32:19.029Z,26.98
2018-10-04T16:34:54.166Z,26.72
2018-10-04T16:37:27.125Z,26.50
2018-10-04T16:39:59.560Z,26.23
2018-10-04T16:42:30.882Z,26.02
2018-10-04T16:45:03.445Z,25.85
2018-10-04T16:47:35.785Z,25.65
2018-10-04T16:50:08.423Z,25.34
2018-10-04T16:52:41.418Z,25.24
2018-10-04T16:55:13.172Z,25.12
2018-10-04T16:57:45.192Z,24.98
2018-10-04T17:00:17.342Z,24.85
2018-10-04T17:02:47.871Z,24.70
2018-10-04T17:05:19.381Z,24.58
2018-10-04T17:07:52.063Z,24.44
2018-10-04T17:10:26.872Z,24.41
2018-10-04T17:13:02.541Z,24.22
2018-10-04T17:15:34.892Z,24.08
2018-10-04T17:18:07.037Z,24.00
2018-10-04T17:20:45.504Z,23.65
2018-10-04T17:23:22.720Z,24.12
2018-10-04T17:26:03.296Z,24.02
2018-10-04T17:28:37.711Z,24.07
2018-10-04T17:31:10.062Z,24.01
2018-10-04T17:33:41.679Z,23.76
2018-10-04T17:36:13.280Z,23.67
2018-10-04T17:38:45.481Z,23.43
2018-10-04T17:41:18.994Z,23.20
2018-10-04T17:43:50.370Z,23.04
2018-10-04T17:46:25.967Z,22.81
2018-10-04T17:48:59.150Z,22.62
2018-10-04T17:51:29.748Z,22.51
2018-10-04T17:54:02.737Z,22.31
2018-10-04T17:56:35.335Z,22.24
2018-10-04T17:59:10.222Z,22.26
2018-10-04T18:01:42.897Z,22.16
2018-10-04T18:04:13.502Z,22.10
2018-10-04T18:06:47.165Z,22.05
2018-10-04T18:09:17.847Z,21.98
2018-10-04T18:11:53.843Z,21.89
2018-10-04T18:14:26.704Z,21.79
2018-10-04T18:16:57.677Z,21.67
2018-10-04T18:19:31.206Z,21.51
2018-10-04T18:22:06.632Z,21.38
2018-10-04T18:24:39.203Z,21.35
2018-10-04T18:27:14.235Z,21.26
2018-10-04T18:29:48.930Z,21.22
2018-10-04T18:32:22.713Z,21.19
2018-10-04T18:34:55.925Z,21.09
2018-10-04T18:37:27.743Z,21.10
2018-10-04T18:40:00.035Z,20.47
2018-10-04T18:42:30.521Z,21.12
2018-10-04T18:45:01.248Z,21.11
2018-10-04T18:47:32.698Z,21.04
2018-10-04T18:50:02.506Z,21.01
2018-10-04T18:52:33.147Z,20.90
2018-10-04T18:55:06.149Z,20.85
2018-10-04T18:57:41.798Z,20.83
2018-10-04T19:00:16.920Z,20.74
2018-10-04T19:02:49.251Z,20.72
2018-10-04T19:05:21.438Z,20.69
2018-10-04T19:07:54.065Z,20.70
2018-10-04T19:10:25.425Z,20.59
2018-10-04T19:12:57.258Z,20.59
2018-10-04T19:15:28.684Z,20.52
2018-10-04T19:18:00.129Z,20.57
2018-10-04T19:20:32.599Z,20.49
2018-10-04T19:23:05.283Z,20.44
2018-10-04T19:25:35.836Z,20.48
2018-10-04T19:28:08.992Z,20.57
2018-10-04T19:30:39.940Z,20.42
2018-10-04T19:33:12.698Z,20.41
2018-10-04T19:36:00.196Z,20.38
2018-10-04T19:38:33.411Z,20.49
2018-10-04T19:41:04.730Z,20.42
2018-10-04T19:43:41.205Z,20.47
2018-10-04T19:46:12.474Z,20.37
2018-10-04T19:48:43.131Z,20.50
2018-10-04T19:51:15.333Z,20.51
2018-10-04T19:53:47.777Z,20.53
2018-10-04T19:56:19.570Z,20.54
2018-10-04T19:58:49.407Z,20.27
2018-10-04T20:01:20.862Z,20.49
2018-10-04T20:03:53.535Z,20.41
2018-10-04T20:06:24.219Z,20.31
2018-10-04T20:08:55.682Z,20.30
2018-10-04T20:11:31.921Z,20.18
2018-10-04T20:14:02.555Z,19.88
2018-10-04T20:16:35.385Z,20.35
2018-10-04T20:19:06.486Z,20.20
2018-10-04T20:21:38.573Z,20.11
2018-10-04T20:24:10.067Z,20.16
2018-10-04T20:26:42.614Z,20.06
2018-10-04T20:29:14.055Z,20.11
2018-10-04T20:31:48.297Z,20.06
2018-10-04T20:34:20.047Z,20.05
2018-10-04T20:36:52.109Z,20.09
2018-10-04T20:39:24.953Z,20.12
2018-10-04T20:41:57.253Z,20.12
2018-10-04T20:44:27.899Z,20.14
2018-10-04T20:46:58.446Z,20.14
2018-10-04T20:49:32.057Z,20.10
2018-10-04T20:52:09.628Z,20.17
2018-10-04T20:54:47.858Z,20.07
2018-10-04T20:57:19.572Z,20.00
2018-10-04T20:59:52.239Z,20.07
2018-10-04T21:02:22.938Z,19.88
2018-10-04T21:04:55.322Z,19.84
2018-10-04T21:07:27.231Z,19.97
2018-10-04T21:09:57.539Z,19.91
2018-10-04T21:12:31.699Z,19.88
2018-10-04T21:15:07.216Z,19.80
2018-10-04T21:17:37.370Z,19.68
2018-10-04T21:20:12.298Z,19.51
2018-10-04T21:22:44.572Z,19.43
2018-10-04T21:25:16.185Z,19.45
2018-10-04T21:27:47.309Z,19.51
2018-10-04T21:30:18.470Z,19.50
2018-10-04T21:32:49.708Z,19.31
2018-10-04T21:35:24.102Z,19.21
2018-10-04T21:37:56.598Z,19.39
2018-10-04T21:40:27.974Z,19.39
2018-10-04T21:42:59.640Z,19.46
2018-10-04T21:45:31.239Z,19.61
2018-10-04T21:48:03.576Z,19.51
2018-10-04T21:50:38.044Z,19.37
2018-10-04T21:53:10.599Z,19.04
2018-10-04T21:55:43.438Z,18.78
2018-10-04T21:58:14.838Z,18.73
2018-10-04T22:00:50.770Z,18.66
2018-10-04T22:03:22.388Z,18.61
2018-10-04T22:05:54.364Z,18.58
2018-10-04T22:08:24.928Z,18.47
2018-10-04T22:10:56.929Z,18.42
2018-10-04T22:13:28.557Z,18.48
2018-10-04T22:15:59.818Z,18.51
2018-10-04T22:18:32.011Z,18.28
2018-10-04T22:21:03.592Z,18.40
2018-10-04T22:23:38.153Z,18.28
2018-10-04T22:26:17.167Z,18.16
2018-10-04T22:28:48.139Z,18.16
2018-10-04T22:31:18.937Z,18.15
2018-10-04T22:33:50.197Z,18.12
2018-10-04T22:36:20.551Z,17.90
2018-10-04T22:38:50.928Z,18.01
2018-10-04T22:41:21.434Z,17.91
2018-10-04T22:43:53.872Z,17.85
2018-10-04T22:46:24.262Z,17.70
2018-10-04T22:48:54.797Z,17.56
2018-10-04T22:51:27.348Z,17.49
2018-10-04T22:53:57.727Z,17.49
2018-10-04T22:56:28.464Z,17.52
2018-10-04T22:58:59.529Z,17.50
2018-10-04T23:01:30.905Z,17.57
2018-10-04T23:04:03.589Z,17.58
2018-10-04T23:06:34.030Z,17.57
2018-10-04T23:09:05.673Z,17.49
2018-10-04T23:11:36.503Z,17.43
2018-10-04T23:14:07.750Z,17.38
2018-10-04T23:16:53.565Z,17.39
2018-10-04T23:19:28.521Z,17.40
2018-10-04T23:21:59.430Z,17.41
2018-10-04T23:24:30.878Z,17.45
2018-10-04T23:27:01.395Z,17.47
2018-10-04T23:29:32.739Z,17.50
2018-10-04T23:32:03.739Z,16.85
2018-10-04T23:34:34.983Z,17.55
2018-10-04T23:37:06.814Z,17.53
2018-10-04T23:39:36.552Z,17.55
2018-10-04T23:42:07.289Z,17.54
2018-10-04T23:44:39.434Z,17.58
2018-10-04T23:47:10.000Z,17.57
2018-10-04T23:49:40.523Z,17.63
2018-10-04T23:52:13.801Z,17.70
2018-10-04T23:54:44.256Z,17.66
2018-10-04T23:57:15.069Z,17.61
2018-10-04T23:59:47.163Z,17.68
